Bluff Estates, South Carolina
Current Conditions -  °F | °C
As of 3:53 PM on Tuesday 25 Nov 2014 (Local Time) from KCUB Reporting Station
Overcast Overcast  
Wind Chill: 60°   Ceiling: 11000
Heat Index: 60°   Visibility: 10mi
Dew Point: 54°   Wind: 0mph
Humidity: 80%   Direction: NA
Pressure: 30.02"   Gusts: NA
Location:  33.9488°N, 80.9462°W
Report Text: KCUB 252053Z AUTO 00000KT 10SM FEW075 SCT100 OVC110 16/12 A3002 RMK AO2 RAE39 SLP165 P0001 60002 T01560122 51005
Loading
Personal Weather Stations






























Interactive Weather Map New forecast layout! Learn more

10-Day Weather Forecast

Advertisements
Track Severe Weather on mobile